sensor_id;sensor_type;location;lat;lon;timestamp;temperature;humidity
73572;DHT22;61854;48.510;-2.770;2023-01-16T00:00:27;7.80;99.50
73572;DHT22;61854;48.510;-2.770;2023-01-16T00:02:53;7.80;99.80
73572;DHT22;61854;48.510;-2.770;2023-01-16T00:05:19;7.70;99.90
73572;DHT22;61854;48.510;-2.770;2023-01-16T00:07:44;7.60;99.90
73572;DHT22;61854;48.510;-2.770;2023-01-16T00:10:10;7.60;99.90
73572;DHT22;61854;48.510;-2.770;2023-01-16T00:12:35;7.60;99.90
73572;DHT22;61854;48.510;-2.770;2023-01-16T00:15:01;7.70;99.20
73572;DHT22;61854;48.510;-2.770;2023-01-16T00:17:27;7.70;97.80
73572;DHT22;61854;48.510;-2.770;2023-01-16T00:19:52;7.70;96.80
73572;DHT22;61854;48.510;-2.770;2023-01-16T00:22:18;7.70;95.40
73572;DHT22;61854;48.510;-2.770;2023-01-16T00:24:44;7.60;95.30
73572;DHT22;61854;48.510;-2.770;2023-01-16T00:27:12;7.60;94.60
73572;DHT22;61854;48.510;-2.770;2023-01-16T00:29:37;7.50;94.60
73572;DHT22;61854;48.510;-2.770;2023-01-16T00:32:03;7.50;94.20
73572;DHT22;61854;48.510;-2.770;2023-01-16T00:34:29;7.40;94.10
73572;DHT22;61854;48.510;-2.770;2023-01-16T00:36:54;7.40;93.40
73572;DHT22;61854;48.510;-2.770;2023-01-16T00:39:19;7.40;93.10
73572;DHT22;61854;48.510;-2.770;2023-01-16T00:41:45;7.40;93.10
73572;DHT22;61854;48.510;-2.770;2023-01-16T00:44:10;7.40;93.30
73572;DHT22;61854;48.510;-2.770;2023-01-16T00:46:36;7.30;92.90
73572;DHT22;61854;48.510;-2.770;2023-01-16T00:49:01;7.30;93.50
73572;DHT22;61854;48.510;-2.770;2023-01-16T00:51:27;7.30;93.70
73572;DHT22;61854;48.510;-2.770;2023-01-16T00:53:52;7.40;93.80
73572;DHT22;61854;48.510;-2.770;2023-01-16T00:56:18;7.40;93.70
73572;DHT22;61854;48.510;-2.770;2023-01-16T00:58:43;7.40;93.60
73572;DHT22;61854;48.510;-2.770;2023-01-16T01:01:09;7.20;94.00
73572;DHT22;61854;48.510;-2.770;2023-01-16T01:03:34;7.10;93.50
73572;DHT22;61854;48.510;-2.770;2023-01-16T01:06:04;7.00;94.70
73572;DHT22;61854;48.510;-2.770;2023-01-16T01:08:30;6.90;95.70
73572;DHT22;61854;48.510;-2.770;2023-01-16T01:10:55;6.80;96.10
73572;DHT22;61854;48.510;-2.770;2023-01-16T01:13:20;6.70;96.30
73572;DHT22;61854;48.510;-2.770;2023-01-16T01:15:46;6.60;96.60
73572;DHT22;61854;48.510;-2.770;2023-01-16T01:18:12;6.50;97.70
73572;DHT22;61854;48.510;-2.770;2023-01-16T01:20:37;6.40;98.20
73572;DHT22;61854;48.510;-2.770;2023-01-16T01:23:03;6.40;98.70
73572;DHT22;61854;48.510;-2.770;2023-01-16T01:25:28;6.40;99.00
73572;DHT22;61854;48.510;-2.770;2023-01-16T01:27:54;6.30;99.40
73572;DHT22;61854;48.510;-2.770;2023-01-16T01:30:19;6.30;99.80
73572;DHT22;61854;48.510;-2.770;2023-01-16T01:32:45;6.30;99.70
73572;DHT22;61854;48.510;-2.770;2023-01-16T01:35:10;6.30;99.80
73572;DHT22;61854;48.510;-2.770;2023-01-16T01:37:36;6.20;99.90
73572;DHT22;61854;48.510;-2.770;2023-01-16T01:40:02;6.20;99.90
73572;DHT22;61854;48.510;-2.770;2023-01-16T01:42:27;6.20;99.90
73572;DHT22;61854;48.510;-2.770;2023-01-16T01:47:37;6.20;99.90
73572;DHT22;61854;48.510;-2.770;2023-01-16T01:52:58;6.30;99.80
73572;DHT22;61854;48.510;-2.770;2023-01-16T01:55:24;6.30;99.90
73572;DHT22;61854;48.510;-2.770;2023-01-16T01:57:54;6.30;99.90
73572;DHT22;61854;48.510;-2.770;2023-01-16T02:00:22;6.30;99.90
73572;DHT22;61854;48.510;-2.770;2023-01-16T02:02:51;6.20;99.90
73572;DHT22;61854;48.510;-2.770;2023-01-16T02:05:20;6.30;99.90
73572;DHT22;61854;48.510;-2.770;2023-01-16T02:07:46;6.30;99.90
73572;DHT22;61854;48.510;-2.770;2023-01-16T02:10:20;6.40;99.90
73572;DHT22;61854;48.510;-2.770;2023-01-16T02:12:47;6.50;99.90
73572;DHT22;61854;48.510;-2.770;2023-01-16T02:15:13;6.40;99.90
73572;DHT22;61854;48.510;-2.770;2023-01-16T02:17:44;6.40;99.90
73572;DHT22;61854;48.510;-2.770;2023-01-16T02:20:29;6.50;99.90
73572;DHT22;61854;48.510;-2.770;2023-01-16T02:39:18;6.50;99.90
73572;DHT22;61854;48.510;-2.770;2023-01-16T02:43:52;6.60;99.90
73572;DHT22;61854;48.510;-2.770;2023-01-16T02:46:30;6.50;99.90
73572;DHT22;61854;48.510;-2.770;2023-01-16T02:49:08;6.50;99.90
73572;DHT22;61854;48.510;-2.770;2023-01-16T02:52:22;6.50;99.90
73572;DHT22;61854;48.510;-2.770;2023-01-16T02:54:29;6.50;99.90
73572;DHT22;61854;48.510;-2.770;2023-01-16T02:57:05;6.50;99.90
73572;DHT22;61854;48.510;-2.770;2023-01-16T02:59:32;6.50;99.90
73572;DHT22;61854;48.510;-2.770;2023-01-16T03:01:58;6.50;99.90
73572;DHT22;61854;48.510;-2.770;2023-01-16T03:27:50;6.30;99.90
73572;DHT22;61854;48.510;-2.770;2023-01-16T03:30:26;6.20;99.90
73572;DHT22;61854;48.510;-2.770;2023-01-16T03:35:43;6.20;99.90
73572;DHT22;61854;48.510;-2.770;2023-01-16T03:38:10;6.20;99.90
73572;DHT22;61854;48.510;-2.770;2023-01-16T03:40:42;6.20;99.90
73572;DHT22;61854;48.510;-2.770;2023-01-16T03:43:23;6.20;99.90
73572;DHT22;61854;48.510;-2.770;2023-01-16T03:45:51;6.20;99.90
73572;DHT22;61854;48.510;-2.770;2023-01-16T03:51:03;6.20;99.90
73572;DHT22;61854;48.510;-2.770;2023-01-16T03:53:30;6.20;99.90
73572;DHT22;61854;48.510;-2.770;2023-01-16T03:58:30;6.20;99.90
73572;DHT22;61854;48.510;-2.770;2023-01-16T04:01:00;6.10;99.90
73572;DHT22;61854;48.510;-2.770;2023-01-16T04:03:28;6.20;99.90
73572;DHT22;61854;48.510;-2.770;2023-01-16T04:06:19;6.10;99.90
73572;DHT22;61854;48.510;-2.770;2023-01-16T04:08:49;6.10;99.90
73572;DHT22;61854;48.510;-2.770;2023-01-16T04:11:16;6.10;99.90
73572;DHT22;61854;48.510;-2.770;2023-01-16T04:13:44;6.10;99.90
73572;DHT22;61854;48.510;-2.770;2023-01-16T04:16:12;6.10;99.90
73572;DHT22;61854;48.510;-2.770;2023-01-16T04:18:44;6.10;99.90
73572;DHT22;61854;48.510;-2.770;2023-01-16T04:21:10;6.10;99.90
73572;DHT22;61854;48.510;-2.770;2023-01-16T04:23:36;6.10;99.90
73572;DHT22;61854;48.510;-2.770;2023-01-16T04:26:01;6.10;99.90
73572;DHT22;61854;48.510;-2.770;2023-01-16T04:28:27;6.10;99.90
73572;DHT22;61854;48.510;-2.770;2023-01-16T04:30:52;6.10;99.90
73572;DHT22;61854;48.510;-2.770;2023-01-16T04:33:18;6.10;99.90
73572;DHT22;61854;48.510;-2.770;2023-01-16T04:35:43;6.10;99.90
73572;DHT22;61854;48.510;-2.770;2023-01-16T04:38:09;6.00;99.90
73572;DHT22;61854;48.510;-2.770;2023-01-16T04:40:34;6.00;99.90
73572;DHT22;61854;48.510;-2.770;2023-01-16T04:43:00;6.00;99.90
73572;DHT22;61854;48.510;-2.770;2023-01-16T04:45:25;6.00;99.90
73572;DHT22;61854;48.510;-2.770;2023-01-16T04:47:51;6.00;99.90
73572;DHT22;61854;48.510;-2.770;2023-01-16T04:50:17;6.00;99.90
73572;DHT22;61854;48.510;-2.770;2023-01-16T04:52:43;6.00;99.90
73572;DHT22;61854;48.510;-2.770;2023-01-16T04:55:09;6.00;99.90
73572;DHT22;61854;48.510;-2.770;2023-01-16T04:57:34;5.90;99.90
73572;DHT22;61854;48.510;-2.770;2023-01-16T05:00:00;5.90;99.90
73572;DHT22;61854;48.510;-2.770;2023-01-16T05:02:26;5.80;99.90
73572;DHT22;61854;48.510;-2.770;2023-01-16T05:04:51;5.90;99.90
73572;DHT22;61854;48.510;-2.770;2023-01-16T05:07:17;5.80;99.90
73572;DHT22;61854;48.510;-2.770;2023-01-16T05:09:42;5.80;99.60
73572;DHT22;61854;48.510;-2.770;2023-01-16T05:12:08;5.80;99.70
73572;DHT22;61854;48.510;-2.770;2023-01-16T05:14:33;5.90;99.40
73572;DHT22;61854;48.510;-2.770;2023-01-16T05:16:59;5.90;99.10
73572;DHT22;61854;48.510;-2.770;2023-01-16T05:19:24;5.90;98.90
73572;DHT22;61854;48.510;-2.770;2023-01-16T05:21:50;5.80;99.90
73572;DHT22;61854;48.510;-2.770;2023-01-16T05:24:15;5.80;99.90
73572;DHT22;61854;48.510;-2.770;2023-01-16T05:26:41;5.80;99.90
73572;DHT22;61854;48.510;-2.770;2023-01-16T05:29:09;5.80;99.90
73572;DHT22;61854;48.510;-2.770;2023-01-16T05:31:35;5.80;99.90
73572;DHT22;61854;48.510;-2.770;2023-01-16T05:34:00;5.80;99.90
73572;DHT22;61854;48.510;-2.770;2023-01-16T05:36:26;5.80;99.90
73572;DHT22;61854;48.510;-2.770;2023-01-16T05:38:51;5.90;99.90
73572;DHT22;61854;48.510;-2.770;2023-01-16T05:41:17;5.90;99.90
73572;DHT22;61854;48.510;-2.770;2023-01-16T05:43:43;5.90;99.90
73572;DHT22;61854;48.510;-2.770;2023-01-16T05:46:08;5.90;99.90
73572;DHT22;61854;48.510;-2.770;2023-01-16T05:48:34;6.00;99.90
73572;DHT22;61854;48.510;-2.770;2023-01-16T05:51:01;6.00;99.40
73572;DHT22;61854;48.510;-2.770;2023-01-16T05:53:26;6.10;98.60
73572;DHT22;61854;48.510;-2.770;2023-01-16T05:55:54;6.10;97.40
73572;DHT22;61854;48.510;-2.770;2023-01-16T05:58:19;6.10;98.30
73572;DHT22;61854;48.510;-2.770;2023-01-16T06:00:45;6.10;97.00
73572;DHT22;61854;48.510;-2.770;2023-01-16T06:03:10;6.20;96.60
73572;DHT22;61854;48.510;-2.770;2023-01-16T06:05:36;6.10;97.40
73572;DHT22;61854;48.510;-2.770;2023-01-16T06:08:01;6.10;96.10
73572;DHT22;61854;48.510;-2.770;2023-01-16T06:10:27;6.10;96.30
73572;DHT22;61854;48.510;-2.770;2023-01-16T06:12:53;6.20;96.20
73572;DHT22;61854;48.510;-2.770;2023-01-16T06:15:18;6.20;98.10
73572;DHT22;61854;48.510;-2.770;2023-01-16T06:17:44;6.20;98.40
73572;DHT22;61854;48.510;-2.770;2023-01-16T06:20:10;6.20;99.30
73572;DHT22;61854;48.510;-2.770;2023-01-16T06:22:36;6.20;98.20
73572;DHT22;61854;48.510;-2.770;2023-01-16T06:25:02;6.10;97.10
73572;DHT22;61854;48.510;-2.770;2023-01-16T06:27:27;6.20;95.80
73572;DHT22;61854;48.510;-2.770;2023-01-16T06:29:53;6.20;95.90
73572;DHT22;61854;48.510;-2.770;2023-01-16T06:32:18;6.30;95.20
73572;DHT22;61854;48.510;-2.770;2023-01-16T06:34:44;6.30;95.40
73572;DHT22;61854;48.510;-2.770;2023-01-16T06:37:09;6.40;95.60
73572;DHT22;61854;48.510;-2.770;2023-01-16T06:39:35;6.30;95.10
73572;DHT22;61854;48.510;-2.770;2023-01-16T06:42:01;6.20;95.80
73572;DHT22;61854;48.510;-2.770;2023-01-16T06:44:30;6.00;96.80
73572;DHT22;61854;48.510;-2.770;2023-01-16T06:46:56;5.90;96.70
73572;DHT22;61854;48.510;-2.770;2023-01-16T06:49:22;5.90;96.40
73572;DHT22;61854;48.510;-2.770;2023-01-16T06:51:47;5.80;96.80
73572;DHT22;61854;48.510;-2.770;2023-01-16T06:54:13;5.80;96.60
73572;DHT22;61854;48.510;-2.770;2023-01-16T06:56:38;5.80;97.10
73572;DHT22;61854;48.510;-2.770;2023-01-16T06:59:04;5.80;97.00
73572;DHT22;61854;48.510;-2.770;2023-01-16T07:01:30;5.90;97.90
73572;DHT22;61854;48.510;-2.770;2023-01-16T07:03:55;5.90;97.90
73572;DHT22;61854;48.510;-2.770;2023-01-16T07:06:21;6.00;98.60
73572;DHT22;61854;48.510;-2.770;2023-01-16T07:08:46;5.90;99.00
73572;DHT22;61854;48.510;-2.770;2023-01-16T07:11:16;5.90;99.10
73572;DHT22;61854;48.510;-2.770;2023-01-16T07:13:41;5.90;99.40
73572;DHT22;61854;48.510;-2.770;2023-01-16T07:16:08;5.90;99.70
73572;DHT22;61854;48.510;-2.770;2023-01-16T07:18:53;5.80;99.70
73572;DHT22;61854;48.510;-2.770;2023-01-16T07:21:37;5.80;99.90
73572;DHT22;61854;48.510;-2.770;2023-01-16T07:24:23;5.80;99.90
73572;DHT22;61854;48.510;-2.770;2023-01-16T07:26:54;5.70;99.90
73572;DHT22;61854;48.510;-2.770;2023-01-16T07:29:22;5.80;99.90
73572;DHT22;61854;48.510;-2.770;2023-01-16T07:31:48;5.80;99.80
73572;DHT22;61854;48.510;-2.770;2023-01-16T07:34:14;5.80;99.60
73572;DHT22;61854;48.510;-2.770;2023-01-16T07:36:39;5.80;99.50
73572;DHT22;61854;48.510;-2.770;2023-01-16T07:39:05;5.70;99.30
73572;DHT22;61854;48.510;-2.770;2023-01-16T07:41:30;5.70;98.90
73572;DHT22;61854;48.510;-2.770;2023-01-16T07:43:56;5.70;99.60
73572;DHT22;61854;48.510;-2.770;2023-01-16T07:46:21;5.60;99.70
73572;DHT22;61854;48.510;-2.770;2023-01-16T07:48:47;5.70;99.70
73572;DHT22;61854;48.510;-2.770;2023-01-16T07:51:13;5.60;99.70
73572;DHT22;61854;48.510;-2.770;2023-01-16T07:53:38;5.70;99.60
73572;DHT22;61854;48.510;-2.770;2023-01-16T07:56:04;5.70;99.90
73572;DHT22;61854;48.510;-2.770;2023-01-16T07:58:30;5.60;99.90
73572;DHT22;61854;48.510;-2.770;2023-01-16T08:00:56;5.60;99.50
73572;DHT22;61854;48.510;-2.770;2023-01-16T08:03:22;5.60;99.30
73572;DHT22;61854;48.510;-2.770;2023-01-16T08:05:48;5.70;99.20
73572;DHT22;61854;48.510;-2.770;2023-01-16T08:08:15;5.70;99.30
73572;DHT22;61854;48.510;-2.770;2023-01-16T08:10:41;5.70;99.50
73572;DHT22;61854;48.510;-2.770;2023-01-16T08:13:07;5.80;99.20
73572;DHT22;61854;48.510;-2.770;2023-01-16T08:15:32;5.80;98.80
73572;DHT22;61854;48.510;-2.770;2023-01-16T08:17:58;5.80;98.80
73572;DHT22;61854;48.510;-2.770;2023-01-16T08:20:23;5.80;98.80
73572;DHT22;61854;48.510;-2.770;2023-01-16T08:22:52;5.80;98.80
73572;DHT22;61854;48.510;-2.770;2023-01-16T08:25:20;5.90;99.00
73572;DHT22;61854;48.510;-2.770;2023-01-16T08:27:45;5.90;99.00
73572;DHT22;61854;48.510;-2.770;2023-01-16T08:30:12;5.90;98.50
73572;DHT22;61854;48.510;-2.770;2023-01-16T08:32:37;5.90;98.90
73572;DHT22;61854;48.510;-2.770;2023-01-16T08:35:03;5.90;99.40
73572;DHT22;61854;48.510;-2.770;2023-01-16T08:37:32;5.90;98.20
73572;DHT22;61854;48.510;-2.770;2023-01-16T08:39:58;5.90;98.10
73572;DHT22;61854;48.510;-2.770;2023-01-16T08:42:23;5.90;98.00
73572;DHT22;61854;48.510;-2.770;2023-01-16T08:45:09;5.90;97.60
73572;DHT22;61854;48.510;-2.770;2023-01-16T08:47:53;5.90;96.70
73572;DHT22;61854;48.510;-2.770;2023-01-16T08:50:37;5.90;96.70
73572;DHT22;61854;48.510;-2.770;2023-01-16T08:53:21;5.90;97.50
73572;DHT22;61854;48.510;-2.770;2023-01-16T08:55:46;6.00;97.30
73572;DHT22;61854;48.510;-2.770;2023-01-16T08:58:12;5.90;97.90
73572;DHT22;61854;48.510;-2.770;2023-01-16T09:00:37;6.00;97.70
73572;DHT22;61854;48.510;-2.770;2023-01-16T09:03:03;6.00;97.30
73572;DHT22;61854;48.510;-2.770;2023-01-16T09:05:29;5.90;97.50
73572;DHT22;61854;48.510;-2.770;2023-01-16T09:07:54;5.90;97.80
73572;DHT22;61854;48.510;-2.770;2023-01-16T09:10:20;5.90;97.20
73572;DHT22;61854;48.510;-2.770;2023-01-16T09:12:45;5.80;97.40
73572;DHT22;61854;48.510;-2.770;2023-01-16T09:15:30;5.80;97.30
73572;DHT22;61854;48.510;-2.770;2023-01-16T09:17:55;5.80;96.80
73572;DHT22;61854;48.510;-2.770;2023-01-16T09:20:21;5.70;97.10
73572;DHT22;61854;48.510;-2.770;2023-01-16T09:22:46;5.70;97.10
73572;DHT22;61854;48.510;-2.770;2023-01-16T09:25:12;5.70;96.70
73572;DHT22;61854;48.510;-2.770;2023-01-16T09:27:37;5.70;97.20
73572;DHT22;61854;48.510;-2.770;2023-01-16T09:30:03;5.70;97.40
73572;DHT22;61854;48.510;-2.770;2023-01-16T09:32:29;5.70;97.20
73572;DHT22;61854;48.510;-2.770;2023-01-16T09:34:55;5.80;96.70
73572;DHT22;61854;48.510;-2.770;2023-01-16T09:37:20;5.90;97.30
73572;DHT22;61854;48.510;-2.770;2023-01-16T09:39:47;6.10;98.20
73572;DHT22;61854;48.510;-2.770;2023-01-16T09:45:23;6.40;97.10
73572;DHT22;61854;48.510;-2.770;2023-01-16T09:47:50;6.40;96.90
73572;DHT22;61854;48.510;-2.770;2023-01-16T09:50:24;6.20;96.30
73572;DHT22;61854;48.510;-2.770;2023-01-16T09:52:52;6.10;97.20
73572;DHT22;61854;48.510;-2.770;2023-01-16T09:55:44;6.00;96.60
73572;DHT22;61854;48.510;-2.770;2023-01-16T09:58:29;5.90;97.00
73572;DHT22;61854;48.510;-2.770;2023-01-16T10:03:33;6.20;98.30
73572;DHT22;61854;48.510;-2.770;2023-01-16T10:08:39;6.20;97.60
73572;DHT22;61854;48.510;-2.770;2023-01-16T10:19:24;6.60;98.60
73572;DHT22;61854;48.510;-2.770;2023-01-16T10:27:37;6.70;97.90
73572;DHT22;61854;48.510;-2.770;2023-01-16T10:30:12;6.70;97.90
73572;DHT22;61854;48.510;-2.770;2023-01-16T10:35:16;6.70;97.60
73572;DHT22;61854;48.510;-2.770;2023-01-16T10:37:44;6.60;97.30
73572;DHT22;61854;48.510;-2.770;2023-01-16T10:40:11;6.50;96.70
73572;DHT22;61854;48.510;-2.770;2023-01-16T10:42:38;6.50;97.20
73572;DHT22;61854;48.510;-2.770;2023-01-16T10:45:33;6.40;97.00
73572;DHT22;61854;48.510;-2.770;2023-01-16T10:48:18;6.50;97.60
73572;DHT22;61854;48.510;-2.770;2023-01-16T10:51:02;6.70;95.90
73572;DHT22;61854;48.510;-2.770;2023-01-16T10:53:28;7.00;97.40
73572;DHT22;61854;48.510;-2.770;2023-01-16T10:55:54;7.10;96.10
73572;DHT22;61854;48.510;-2.770;2023-01-16T10:58:30;7.20;96.30
73572;DHT22;61854;48.510;-2.770;2023-01-16T11:01:03;7.20;95.30
73572;DHT22;61854;48.510;-2.770;2023-01-16T11:03:32;7.20;95.90
73572;DHT22;61854;48.510;-2.770;2023-01-16T11:06:09;7.10;95.70
73572;DHT22;61854;48.510;-2.770;2023-01-16T11:08:35;7.10;96.40
73572;DHT22;61854;48.510;-2.770;2023-01-16T11:11:00;7.10;96.70
73572;DHT22;61854;48.510;-2.770;2023-01-16T11:13:27;7.20;96.80
73572;DHT22;61854;48.510;-2.770;2023-01-16T11:18:55;7.20;96.30
73572;DHT22;61854;48.510;-2.770;2023-01-16T11:21:31;7.10;97.30
73572;DHT22;61854;48.510;-2.770;2023-01-16T11:24:19;7.10;97.70
73572;DHT22;61854;48.510;-2.770;2023-01-16T11:26:45;7.00;98.20
73572;DHT22;61854;48.510;-2.770;2023-01-16T11:29:13;6.90;98.10
73572;DHT22;61854;48.510;-2.770;2023-01-16T11:31:40;6.90;98.00
73572;DHT22;61854;48.510;-2.770;2023-01-16T11:34:10;6.90;97.40
73572;DHT22;61854;48.510;-2.770;2023-01-16T11:36:36;6.80;96.90
73572;DHT22;61854;48.510;-2.770;2023-01-16T11:39:03;6.90;98.20
73572;DHT22;61854;48.510;-2.770;2023-01-16T11:41:34;6.80;97.80
73572;DHT22;61854;48.510;-2.770;2023-01-16T11:46:56;6.90;98.30
73572;DHT22;61854;48.510;-2.770;2023-01-16T11:49:24;6.90;98.80
73572;DHT22;61854;48.510;-2.770;2023-01-16T11:51:52;7.00;98.80
73572;DHT22;61854;48.510;-2.770;2023-01-16T11:54:19;6.90;98.20
73572;DHT22;61854;48.510;-2.770;2023-01-16T11:57:00;7.00;98.20
73572;DHT22;61854;48.510;-2.770;2023-01-16T11:59:48;7.10;98.70
73572;DHT22;61854;48.510;-2.770;2023-01-16T12:19:28;6.80;97.00
73572;DHT22;61854;48.510;-2.770;2023-01-16T12:45:37;6.90;95.40
73572;DHT22;61854;48.510;-2.770;2023-01-16T12:53:12;6.60;96.30
73572;DHT22;61854;48.510;-2.770;2023-01-16T12:55:49;6.60;96.70
73572;DHT22;61854;48.510;-2.770;2023-01-16T12:58:25;6.70;97.20
73572;DHT22;61854;48.510;-2.770;2023-01-16T13:03:25;6.80;96.70
73572;DHT22;61854;48.510;-2.770;2023-01-16T13:05:52;6.80;96.40
73572;DHT22;61854;48.510;-2.770;2023-01-16T13:10:46;6.80;96.50
73572;DHT22;61854;48.510;-2.770;2023-01-16T13:13:36;6.80;96.40
73572;DHT22;61854;48.510;-2.770;2023-01-16T13:18:34;6.80;96.50
73572;DHT22;61854;48.510;-2.770;2023-01-16T13:21:02;6.90;96.50
73572;DHT22;61854;48.510;-2.770;2023-01-16T13:23:38;7.00;96.60
73572;DHT22;61854;48.510;-2.770;2023-01-16T13:26:07;7.00;96.20
73572;DHT22;61854;48.510;-2.770;2023-01-16T13:30:59;7.10;95.80
73572;DHT22;61854;48.510;-2.770;2023-01-16T13:33:31;7.10;95.70
73572;DHT22;61854;48.510;-2.770;2023-01-16T13:41:30;7.50;96.40
73572;DHT22;61854;48.510;-2.770;2023-01-16T13:44:12;7.60;95.10
73572;DHT22;61854;48.510;-2.770;2023-01-16T13:47:08;7.60;94.80
73572;DHT22;61854;48.510;-2.770;2023-01-16T13:49:35;7.70;93.90
73572;DHT22;61854;48.510;-2.770;2023-01-16T13:52:01;7.60;93.90
73572;DHT22;61854;48.510;-2.770;2023-01-16T13:54:31;7.50;93.50
73572;DHT22;61854;48.510;-2.770;2023-01-16T13:57:07;7.50;94.20
73572;DHT22;61854;48.510;-2.770;2023-01-16T14:02:07;7.20;95.20
73572;DHT22;61854;48.510;-2.770;2023-01-16T14:04:42;7.20;95.00
73572;DHT22;61854;48.510;-2.770;2023-01-16T14:15:50;6.70;97.20
73572;DHT22;61854;48.510;-2.770;2023-01-16T14:21:04;8.00;93.70
73572;DHT22;61854;48.510;-2.770;2023-01-16T14:23:36;8.20;92.90
73572;DHT22;61854;48.510;-2.770;2023-01-16T14:26:29;8.60;93.00
73572;DHT22;61854;48.510;-2.770;2023-01-16T14:28:58;9.20;92.90
73572;DHT22;61854;48.510;-2.770;2023-01-16T14:33:51;10.60;88.60
73572;DHT22;61854;48.510;-2.770;2023-01-16T14:36:17;10.70;89.60
73572;DHT22;61854;48.510;-2.770;2023-01-16T14:38:45;10.70;88.40
73572;DHT22;61854;48.510;-2.770;2023-01-16T14:41:14;10.20;86.40
73572;DHT22;61854;48.510;-2.770;2023-01-16T14:44:02;9.60;86.80
73572;DHT22;61854;48.510;-2.770;2023-01-16T14:46:50;8.90;89.00
73572;DHT22;61854;48.510;-2.770;2023-01-16T14:55:28;7.10;93.90
73572;DHT22;61854;48.510;-2.770;2023-01-16T14:57:56;6.80;95.10
73572;DHT22;61854;48.510;-2.770;2023-01-16T15:00:22;6.60;95.90
73572;DHT22;61854;48.510;-2.770;2023-01-16T15:03:02;6.60;96.30
73572;DHT22;61854;48.510;-2.770;2023-01-16T15:08:14;6.50;97.10
73572;DHT22;61854;48.510;-2.770;2023-01-16T15:10:41;6.40;97.10
73572;DHT22;61854;48.510;-2.770;2023-01-16T15:15:41;6.50;97.50
73572;DHT22;61854;48.510;-2.770;2023-01-16T15:18:12;6.50;97.40
73572;DHT22;61854;48.510;-2.770;2023-01-16T15:20:57;6.40;97.60
73572;DHT22;61854;48.510;-2.770;2023-01-16T15:23:41;6.40;97.60
73572;DHT22;61854;48.510;-2.770;2023-01-16T15:26:12;6.40;97.80
73572;DHT22;61854;48.510;-2.770;2023-01-16T15:28:43;6.30;97.40
73572;DHT22;61854;48.510;-2.770;2023-01-16T15:31:25;6.30;97.70
73572;DHT22;61854;48.510;-2.770;2023-01-16T15:34:37;6.20;97.70
73572;DHT22;61854;48.510;-2.770;2023-01-16T15:36:44;6.20;97.90
73572;DHT22;61854;48.510;-2.770;2023-01-16T15:41:51;6.10;97.50
73572;DHT22;61854;48.510;-2.770;2023-01-16T15:44:37;6.10;97.50
73572;DHT22;61854;48.510;-2.770;2023-01-16T15:52:34;5.90;97.00
73572;DHT22;61854;48.510;-2.770;2023-01-16T15:55:11;5.80;97.10
73572;DHT22;61854;48.510;-2.770;2023-01-16T15:57:37;5.80;97.00
73572;DHT22;61854;48.510;-2.770;2023-01-16T16:00:02;5.80;96.80
73572;DHT22;61854;48.510;-2.770;2023-01-16T16:02:30;5.70;97.00
73572;DHT22;61854;48.510;-2.770;2023-01-16T16:04:58;5.70;97.20
73572;DHT22;61854;48.510;-2.770;2023-01-16T16:07:24;5.70;97.10
73572;DHT22;61854;48.510;-2.770;2023-01-16T16:09:52;5.80;97.10
73572;DHT22;61854;48.510;-2.770;2023-01-16T16:12:18;5.80;97.00
73572;DHT22;61854;48.510;-2.770;2023-01-16T16:14:44;5.80;97.00
73572;DHT22;61854;48.510;-2.770;2023-01-16T16:17:32;5.80;96.90
73572;DHT22;61854;48.510;-2.770;2023-01-16T16:20:36;5.80;96.90
73572;DHT22;61854;48.510;-2.770;2023-01-16T16:25:39;5.90;97.00
73572;DHT22;61854;48.510;-2.770;2023-01-16T16:28:15;5.90;96.70
73572;DHT22;61854;48.510;-2.770;2023-01-16T16:30:42;5.90;96.90
73572;DHT22;61854;48.510;-2.770;2023-01-16T16:33:15;5.90;96.70
73572;DHT22;61854;48.510;-2.770;2023-01-16T16:35:41;5.80;96.60
73572;DHT22;61854;48.510;-2.770;2023-01-16T16:38:22;5.90;96.20
73572;DHT22;61854;48.510;-2.770;2023-01-16T16:43:45;5.80;96.30
73572;DHT22;61854;48.510;-2.770;2023-01-16T16:51:19;5.70;96.20
73572;DHT22;61854;48.510;-2.770;2023-01-16T16:53:45;5.70;96.30
73572;DHT22;61854;48.510;-2.770;2023-01-16T16:56:12;5.60;96.60
73572;DHT22;61854;48.510;-2.770;2023-01-16T16:58:43;5.50;96.40
73572;DHT22;61854;48.510;-2.770;2023-01-16T17:01:13;5.50;96.30
73572;DHT22;61854;48.510;-2.770;2023-01-16T17:03:39;5.50;96.90
73572;DHT22;61854;48.510;-2.770;2023-01-16T17:06:06;5.40;96.60
73572;DHT22;61854;48.510;-2.770;2023-01-16T17:08:32;5.40;97.00
73572;DHT22;61854;48.510;-2.770;2023-01-16T17:10:58;5.40;97.10
73572;DHT22;61854;48.510;-2.770;2023-01-16T17:13:23;5.40;97.30
73572;DHT22;61854;48.510;-2.770;2023-01-16T17:15:53;5.40;96.60
73572;DHT22;61854;48.510;-2.770;2023-01-16T17:18:20;5.40;96.90
73572;DHT22;61854;48.510;-2.770;2023-01-16T17:20:47;5.40;97.30
73572;DHT22;61854;48.510;-2.770;2023-01-16T17:23:13;5.40;97.50
73572;DHT22;61854;48.510;-2.770;2023-01-16T17:25:39;5.40;97.70
73572;DHT22;61854;48.510;-2.770;2023-01-16T17:28:05;5.40;97.80
73572;DHT22;61854;48.510;-2.770;2023-01-16T17:30:31;5.30;97.60
73572;DHT22;61854;48.510;-2.770;2023-01-16T17:32:57;5.30;97.80
73572;DHT22;61854;48.510;-2.770;2023-01-16T17:35:24;5.30;97.30
73572;DHT22;61854;48.510;-2.770;2023-01-16T17:37:49;5.30;97.70
73572;DHT22;61854;48.510;-2.770;2023-01-16T17:40:15;5.30;97.60
73572;DHT22;61854;48.510;-2.770;2023-01-16T17:42:41;5.30;97.70
73572;DHT22;61854;48.510;-2.770;2023-01-16T17:48:09;5.20;98.30
73572;DHT22;61854;48.510;-2.770;2023-01-16T17:50:34;5.10;98.60
73572;DHT22;61854;48.510;-2.770;2023-01-16T17:53:00;5.00;98.60
73572;DHT22;61854;48.510;-2.770;2023-01-16T17:55:25;5.00;98.80
73572;DHT22;61854;48.510;-2.770;2023-01-16T17:58:09;5.00;99.00
73572;DHT22;61854;48.510;-2.770;2023-01-16T18:00:35;5.00;99.10
73572;DHT22;61854;48.510;-2.770;2023-01-16T18:03:00;4.90;98.90
73572;DHT22;61854;48.510;-2.770;2023-01-16T18:05:26;4.90;98.90
73572;DHT22;61854;48.510;-2.770;2023-01-16T18:07:51;4.80;99.00
73572;DHT22;61854;48.510;-2.770;2023-01-16T18:10:17;4.80;99.10
73572;DHT22;61854;48.510;-2.770;2023-01-16T18:12:42;4.80;99.10
73572;DHT22;61854;48.510;-2.770;2023-01-16T18:15:26;4.70;99.10
73572;DHT22;61854;48.510;-2.770;2023-01-16T18:18:10;4.70;99.20
73572;DHT22;61854;48.510;-2.770;2023-01-16T18:20:39;4.60;99.40
73572;DHT22;61854;48.510;-2.770;2023-01-16T18:23:05;4.60;99.50
73572;DHT22;61854;48.510;-2.770;2023-01-16T18:25:30;4.60;99.40
73572;DHT22;61854;48.510;-2.770;2023-01-16T18:27:56;4.50;99.40
73572;DHT22;61854;48.510;-2.770;2023-01-16T18:30:21;4.50;99.50
73572;DHT22;61854;48.510;-2.770;2023-01-16T18:32:47;4.40;99.60
73572;DHT22;61854;48.510;-2.770;2023-01-16T18:35:12;4.40;99.70
73572;DHT22;61854;48.510;-2.770;2023-01-16T18:37:39;4.40;99.70
73572;DHT22;61854;48.510;-2.770;2023-01-16T18:40:11;4.30;99.70
73572;DHT22;61854;48.510;-2.770;2023-01-16T18:42:56;4.30;99.80
73572;DHT22;61854;48.510;-2.770;2023-01-16T18:45:40;4.30;99.80
73572;DHT22;61854;48.510;-2.770;2023-01-16T18:48:25;4.40;99.70
73572;DHT22;61854;48.510;-2.770;2023-01-16T18:51:15;4.40;99.60
73572;DHT22;61854;48.510;-2.770;2023-01-16T18:54:00;4.40;99.70
73572;DHT22;61854;48.510;-2.770;2023-01-16T18:56:53;4.40;99.80
73572;DHT22;61854;48.510;-2.770;2023-01-16T18:59:38;4.40;99.90